createdAt,value
2018-03-08T00:00:06.625Z,4.31
2018-03-08T00:01:06.653Z,4.32
2018-03-08T00:02:06.708Z,4.31
2018-03-08T00:03:06.700Z,4.22
2018-03-08T00:04:06.728Z,4.31
2018-03-08T00:05:06.734Z,4.30
2018-03-08T00:06:06.782Z,4.32
2018-03-08T00:07:06.796Z,4.32
2018-03-08T00:08:06.816Z,4.30
2018-03-08T00:09:06.810Z,4.24
2018-03-08T00:10:06.835Z,4.34
2018-03-08T00:11:06.886Z,4.32
2018-03-08T00:12:06.885Z,4.36
2018-03-08T00:13:06.898Z,4.22
2018-03-08T00:14:06.950Z,4.30
2018-03-08T00:15:06.960Z,4.32
2018-03-08T00:16:06.964Z,4.30
2018-03-08T00:17:06.992Z,4.30
2018-03-08T00:18:07.074Z,4.28
2018-03-08T00:19:07.019Z,4.32
2018-03-08T00:20:07.084Z,4.28
2018-03-08T00:21:07.062Z,4.30
2018-03-08T00:22:07.094Z,4.32
2018-03-08T00:23:07.115Z,4.34
2018-03-08T00:24:07.122Z,4.24
2018-03-08T00:25:07.146Z,4.36
2018-03-08T00:26:07.165Z,4.25
2018-03-08T00:27:07.182Z,4.27
2018-03-08T00:28:07.205Z,4.31
2018-03-08T00:29:07.227Z,4.30
2018-03-08T00:30:07.245Z,4.34
2018-03-08T00:31:07.272Z,4.30
2018-03-08T00:32:07.285Z,4.27
2018-03-08T00:33:07.306Z,4.25
2018-03-08T00:34:07.324Z,4.31
2018-03-08T00:35:07.343Z,4.38
2018-03-08T00:36:07.368Z,4.27
2018-03-08T00:37:07.381Z,4.28
2018-03-08T00:38:07.413Z,4.24
2018-03-08T00:39:07.432Z,4.36
2018-03-08T00:40:07.449Z,4.36
2018-03-08T00:41:07.474Z,4.39
2018-03-08T00:42:07.487Z,4.39
2018-03-08T00:43:07.526Z,4.32
2018-03-08T00:44:07.534Z,4.36
2018-03-08T00:45:07.548Z,4.32
2018-03-08T00:46:07.570Z,4.38
2018-03-08T00:47:07.589Z,4.32
2018-03-08T00:48:07.622Z,4.34
2018-03-08T00:49:07.641Z,4.32
2018-03-08T00:50:07.737Z,4.32
2018-03-08T00:51:07.674Z,4.49
2018-03-08T00:52:07.694Z,4.49
2018-03-08T00:53:07.717Z,4.49
2018-03-08T00:54:07.748Z,4.46
2018-03-08T00:55:07.753Z,4.46
2018-03-08T00:56:07.773Z,4.34
2018-03-08T00:57:07.807Z,4.39
2018-03-08T00:58:07.817Z,4.34
2018-03-08T00:59:07.843Z,4.34
2018-03-08T01:00:07.870Z,4.31
2018-03-08T01:01:08.557Z,4.24
2018-03-08T01:02:07.911Z,4.27
2018-03-08T01:03:07.927Z,4.27
2018-03-08T01:04:07.933Z,4.28
2018-03-08T01:05:07.991Z,4.22
2018-03-08T01:06:07.996Z,4.27
2018-03-08T01:07:08.002Z,4.25
2018-03-08T01:08:08.018Z,4.28
2018-03-08T01:09:08.056Z,4.28
2018-03-08T01:10:08.073Z,4.27
2018-03-08T01:11:08.087Z,4.36
2018-03-08T01:12:08.105Z,4.38
2018-03-08T01:13:08.128Z,4.25
2018-03-08T01:14:08.150Z,4.30
2018-03-08T01:15:08.159Z,4.32
2018-03-08T01:16:08.206Z,4.43
2018-03-08T01:17:08.214Z,4.48
2018-03-08T01:18:08.229Z,4.49
2018-03-08T01:19:08.249Z,4.49
2018-03-08T01:20:08.264Z,4.52
2018-03-08T01:21:08.303Z,4.57
2018-03-08T01:22:08.310Z,4.56
2018-03-08T01:23:08.325Z,4.61
2018-03-08T01:24:08.382Z,4.63
2018-03-08T01:25:08.377Z,4.71
2018-03-08T01:26:08.397Z,4.61
2018-03-08T01:27:08.512Z,4.53
2018-03-08T01:28:08.447Z,4.46
2018-03-08T01:29:08.460Z,4.48
2018-03-08T01:30:08.469Z,4.49
2018-03-08T01:31:08.518Z,4.31
2018-03-08T01:32:08.578Z,4.36
2018-03-08T01:33:08.532Z,4.36
2018-03-08T01:34:08.558Z,4.25
2018-03-08T01:35:08.577Z,4.38
2018-03-08T01:36:08.606Z,4.22
2018-03-08T01:37:08.617Z,4.27
2018-03-08T01:38:08.644Z,4.24
2018-03-08T01:39:08.672Z,4.31
2018-03-08T01:40:08.694Z,4.22
2018-03-08T01:41:08.699Z,4.34
2018-03-08T01:42:08.726Z,4.32
2018-03-08T01:43:08.740Z,4.39
2018-03-08T01:44:08.764Z,4.34
2018-03-08T01:45:08.783Z,4.45
2018-03-08T01:46:08.812Z,4.32
2018-03-08T01:47:08.837Z,4.36
2018-03-08T01:48:08.846Z,4.38
2018-03-08T01:49:08.862Z,4.38
2018-03-08T01:50:08.895Z,4.48
2018-03-08T01:51:08.911Z,4.45
2018-03-08T01:52:08.928Z,4.49
2018-03-08T01:53:08.946Z,4.48
2018-03-08T01:54:08.986Z,4.48
2018-03-08T01:55:08.995Z,4.50
2018-03-08T01:56:09.014Z,4.46
2018-03-08T01:57:09.037Z,4.49
2018-03-08T01:58:09.069Z,4.58
2018-03-08T01:59:09.067Z,4.64
2018-03-08T02:00:09.087Z,4.61
2018-03-08T02:01:09.117Z,4.53
2018-03-08T02:02:09.148Z,4.53
2018-03-08T02:03:09.157Z,4.57
2018-03-08T02:04:09.179Z,4.57
2018-03-08T02:05:09.197Z,4.53
2018-03-08T02:06:09.218Z,4.52
2018-03-08T02:07:09.239Z,4.42
2018-03-08T02:08:09.257Z,4.32
2018-03-08T02:09:09.278Z,4.43
2018-03-08T02:10:09.307Z,4.32
2018-03-08T02:11:09.326Z,4.32
2018-03-08T02:12:09.356Z,4.22
2018-03-08T02:13:09.360Z,4.38
2018-03-08T02:14:09.393Z,4.27
2018-03-08T02:15:09.408Z,4.28
2018-03-08T02:16:09.469Z,4.24
2018-03-08T02:17:09.459Z,4.18
2018-03-08T02:18:09.464Z,4.25
2018-03-08T02:19:09.483Z,4.25
2018-03-08T02:20:09.510Z,4.24
2018-03-08T02:21:09.526Z,4.18
2018-03-08T02:22:09.553Z,4.16
2018-03-08T02:23:09.563Z,4.22
2018-03-08T02:24:09.585Z,4.25
2018-03-08T02:25:09.620Z,4.21
2018-03-08T02:26:09.627Z,4.20
2018-03-08T02:27:09.665Z,4.21
2018-03-08T02:28:09.674Z,4.18
2018-03-08T02:29:09.705Z,4.10
2018-03-08T02:30:09.740Z,4.21
2018-03-08T02:31:09.745Z,4.20
2018-03-08T02:32:09.755Z,4.25
2018-03-08T02:33:09.782Z,4.27
2018-03-08T02:34:09.794Z,4.21
2018-03-08T02:35:09.822Z,4.20
2018-03-08T02:36:09.838Z,4.24
2018-03-08T02:37:09.864Z,4.21
2018-03-08T02:38:09.876Z,4.22
2018-03-08T02:39:09.904Z,4.27
2018-03-08T02:40:09.931Z,4.27
2018-03-08T02:41:10.053Z,4.32
2018-03-08T02:42:09.966Z,4.36
2018-03-08T02:43:10.001Z,4.34
2018-03-08T02:44:10.010Z,4.39
2018-03-08T02:45:10.019Z,4.48
2018-03-08T02:46:10.058Z,4.46
2018-03-08T02:47:10.057Z,4.34
2018-03-08T02:48:10.088Z,4.34
2018-03-08T02:49:10.114Z,4.40
2018-03-08T02:50:10.128Z,4.31
2018-03-08T02:51:10.143Z,4.38
2018-03-08T02:52:10.191Z,4.38
2018-03-08T02:53:10.183Z,4.21
2018-03-08T02:54:10.233Z,4.32
2018-03-08T02:55:10.260Z,4.27
2018-03-08T02:56:10.279Z,4.28
2018-03-08T02:57:10.264Z,4.22
2018-03-08T02:58:10.293Z,4.34
2018-03-08T02:59:10.305Z,4.25
2018-03-08T03:00:10.333Z,4.30
2018-03-08T03:01:10.365Z,4.27
2018-03-08T03:02:10.374Z,4.30
2018-03-08T03:03:10.401Z,4.24
2018-03-08T03:04:10.431Z,4.28
2018-03-08T03:05:10.446Z,4.27
2018-03-08T03:06:10.515Z,4.22
2018-03-08T03:07:10.485Z,4.18
2018-03-08T03:08:10.507Z,4.27
2018-03-08T03:09:10.518Z,4.14
2018-03-08T03:10:10.530Z,4.16
2018-03-08T03:11:10.570Z,4.24
2018-03-08T03:12:10.585Z,4.14
2018-03-08T03:13:10.609Z,4.18
2018-03-08T03:14:10.617Z,4.09
2018-03-08T03:15:10.647Z,4.04
2018-03-08T03:16:10.661Z,4.21
2018-03-08T03:17:10.672Z,4.25
2018-03-08T03:18:10.718Z,4.32
2018-03-08T03:19:10.737Z,4.24
2018-03-08T03:20:10.781Z,4.22
2018-03-08T03:22:10.782Z,4.24
2018-03-08T03:23:10.816Z,4.24
2018-03-08T03:24:10.831Z,4.32
2018-03-08T03:25:10.837Z,4.22
2018-03-08T03:26:10.878Z,4.32
2018-03-08T03:27:10.898Z,4.34
2018-03-08T03:28:10.901Z,4.48
2018-03-08T03:29:10.927Z,4.48
2018-03-08T03:30:10.971Z,4.45
2018-03-08T03:31:10.970Z,4.45
2018-03-08T03:32:10.985Z,4.56
2018-03-08T03:33:11.005Z,4.52
2018-03-08T03:34:11.039Z,4.64
2018-03-08T03:35:11.049Z,4.61
2018-03-08T03:36:11.092Z,4.56
2018-03-08T03:37:11.103Z,4.60
2018-03-08T03:38:11.126Z,4.63
2018-03-08T03:39:11.132Z,4.57
2018-03-08T03:40:11.149Z,4.58
2018-03-08T03:41:11.188Z,4.64
2018-03-08T03:42:11.193Z,4.71
2018-03-08T03:44:11.238Z,4.56
2018-03-08T03:45:11.252Z,4.68
2018-03-08T03:46:11.275Z,4.46
2018-03-08T03:47:11.294Z,4.48
2018-03-08T03:48:11.317Z,4.36
2018-03-08T03:49:11.347Z,4.27
2018-03-08T03:50:11.357Z,4.30
2018-03-08T03:51:11.392Z,4.31
2018-03-08T03:52:11.396Z,4.38
2018-03-08T03:53:11.436Z,4.43
2018-03-08T03:54:11.448Z,4.46
2018-03-08T03:55:11.491Z,4.50
2018-03-08T03:56:11.515Z,4.50
2018-03-08T03:57:11.635Z,4.49
2018-03-08T03:58:11.568Z,4.46
2018-03-08T03:59:11.546Z,4.61
2018-03-08T04:00:11.581Z,4.45
2018-03-08T04:01:11.653Z,4.45
2018-03-08T04:02:11.645Z,4.58
2018-03-08T04:03:11.632Z,4.63
2018-03-08T04:04:11.696Z,4.60
2018-03-08T04:05:11.676Z,4.53
2018-03-08T04:06:11.789Z,4.58
2018-03-08T04:07:11.706Z,4.58
2018-03-08T04:08:11.748Z,4.53
2018-03-08T04:09:11.763Z,4.63
2018-03-08T04:10:11.765Z,4.68
2018-03-08T04:11:11.809Z,4.61
2018-03-08T04:12:11.847Z,4.70
2018-03-08T04:13:11.833Z,4.56
2018-03-08T04:14:11.860Z,4.66
2018-03-08T04:15:11.872Z,4.64
2018-03-08T04:16:11.901Z,4.57
2018-03-08T04:17:11.953Z,4.60
2018-03-08T04:18:11.943Z,4.60
2018-03-08T04:19:11.968Z,4.60
2018-03-08T04:20:11.979Z,4.57
2018-03-08T04:21:12.084Z,4.60
2018-03-08T04:22:12.021Z,4.48
2018-03-08T04:23:12.036Z,4.52
2018-03-08T04:24:12.063Z,4.48
2018-03-08T04:25:12.112Z,4.50
2018-03-08T04:26:12.131Z,4.61
2018-03-08T04:27:12.128Z,4.49
2018-03-08T04:28:12.158Z,4.48
2018-03-08T04:29:12.172Z,4.56
2018-03-08T04:30:12.193Z,4.49
2018-03-08T04:31:12.213Z,4.46
2018-03-08T04:32:12.244Z,4.49
2018-03-08T04:33:12.245Z,4.45
2018-03-08T04:34:12.279Z,4.45
2018-03-08T04:35:12.292Z,4.49
2018-03-08T04:36:12.305Z,4.49
2018-03-08T04:37:12.340Z,4.52
2018-03-08T04:38:12.363Z,4.48
2018-03-08T04:39:12.373Z,4.49
2018-03-08T04:40:12.393Z,4.34
2018-03-08T04:41:12.428Z,4.34
2018-03-08T04:42:12.445Z,4.45
2018-03-08T04:43:13.067Z,4.45
2018-03-08T04:44:12.482Z,4.43
2018-03-08T04:45:12.501Z,4.50
2018-03-08T04:46:12.518Z,4.46
2018-03-08T04:47:12.540Z,4.53
2018-03-08T04:48:12.562Z,4.64
2018-03-08T04:49:12.607Z,4.60
2018-03-08T04:50:12.668Z,4.63
2018-03-08T04:51:12.640Z,4.61
2018-03-08T04:52:12.645Z,4.57
2018-03-08T04:53:12.670Z,4.63
2018-03-08T04:54:12.686Z,4.58
2018-03-08T04:55:12.750Z,4.58
2018-03-08T04:56:12.721Z,4.61
2018-03-08T04:57:12.760Z,4.66
2018-03-08T04:58:12.761Z,4.63
2018-03-08T04:59:12.798Z,4.60
2018-03-08T05:00:12.807Z,4.57
2018-03-08T05:01:12.840Z,4.58
2018-03-08T05:02:12.848Z,4.63
2018-03-08T05:03:12.887Z,4.67
2018-03-08T05:04:12.913Z,4.57
2018-03-08T05:05:12.918Z,4.58
2018-03-08T05:06:12.930Z,4.56
2018-03-08T05:07:12.954Z,4.45
2018-03-08T05:08:12.984Z,4.52
2018-03-08T05:09:12.994Z,4.42
2018-03-08T05:10:13.015Z,4.43
2018-03-08T05:11:13.067Z,4.34
2018-03-08T05:12:13.067Z,4.38
2018-03-08T05:13:13.069Z,4.27
2018-03-08T05:14:13.106Z,4.34
2018-03-08T05:15:13.114Z,4.34
2018-03-08T05:16:13.144Z,4.30
2018-03-08T05:17:13.177Z,4.27
2018-03-08T05:18:13.179Z,4.28
2018-03-08T05:19:13.219Z,4.25
2018-03-08T05:20:13.261Z,4.27
2018-03-08T05:21:13.239Z,4.25
2018-03-08T05:22:13.264Z,4.30
2018-03-08T05:23:13.294Z,4.39
2018-03-08T05:24:13.300Z,4.36
2018-03-08T05:25:13.321Z,4.30
2018-03-08T05:26:13.344Z,4.32
2018-03-08T05:27:13.373Z,4.32
2018-03-08T05:28:13.383Z,4.32
2018-03-08T05:29:13.410Z,4.28
2018-03-08T05:30:13.431Z,4.20
2018-03-08T05:31:13.454Z,4.36
2018-03-08T05:32:13.479Z,4.28
2018-03-08T05:33:13.487Z,4.31
2018-03-08T05:34:13.525Z,4.30
2018-03-08T05:35:13.536Z,4.32
2018-03-08T05:36:13.554Z,4.32
2018-03-08T05:37:13.578Z,4.32
2018-03-08T05:38:13.595Z,4.27
2018-03-08T05:39:13.615Z,4.25
2018-03-08T05:40:13.631Z,4.31
2018-03-08T05:41:13.661Z,4.45
2018-03-08T05:42:13.694Z,4.49
2018-03-08T05:43:13.707Z,4.53
2018-03-08T05:44:13.732Z,4.63
2018-03-08T05:45:13.736Z,4.61
2018-03-08T05:46:13.777Z,4.60
2018-03-08T05:47:13.778Z,4.61
2018-03-08T05:48:13.803Z,4.67
2018-03-08T05:49:13.844Z,4.57
2018-03-08T05:50:13.849Z,4.74
2018-03-08T05:51:13.856Z,4.84
2018-03-08T05:52:13.885Z,4.71
2018-03-08T05:53:13.902Z,4.71
2018-03-08T05:54:13.926Z,4.74
2018-03-08T05:55:13.978Z,4.79
2018-03-08T05:56:13.970Z,4.79
2018-03-08T05:57:14.003Z,4.75
2018-03-08T05:58:14.003Z,4.78
2018-03-08T05:59:14.029Z,4.75
2018-03-08T06:00:14.048Z,4.84
2018-03-08T06:01:14.085Z,4.83
2018-03-08T06:02:14.093Z,4.70
2018-03-08T06:03:14.112Z,4.71
2018-03-08T06:04:14.144Z,4.64
2018-03-08T06:05:14.156Z,4.66
2018-03-08T06:06:14.176Z,4.70
2018-03-08T06:07:14.212Z,4.60
2018-03-08T06:08:14.221Z,4.68
2018-03-08T06:09:14.236Z,4.63
2018-03-08T06:10:14.348Z,4.68
2018-03-08T06:11:14.278Z,4.70
2018-03-08T06:12:14.361Z,4.83
2018-03-08T06:13:14.316Z,4.78
2018-03-08T06:14:14.342Z,4.82
2018-03-08T06:15:14.375Z,4.82
2018-03-08T06:16:14.379Z,4.82
2018-03-08T06:17:14.406Z,4.82
2018-03-08T06:18:14.455Z,4.75
2018-03-08T06:19:14.460Z,4.84
2018-03-08T06:20:14.469Z,4.89
2018-03-08T06:21:14.515Z,4.83
2018-03-08T06:22:14.503Z,4.97
2018-03-08T06:23:14.566Z,4.98
2018-03-08T06:24:14.549Z,5.01
2018-03-08T06:25:14.569Z,4.97
2018-03-08T06:26:14.656Z,5.00
2018-03-08T06:27:14.621Z,5.01
2018-03-08T06:28:14.631Z,5.10
2018-03-08T06:29:14.659Z,5.13
2018-03-08T06:30:14.673Z,5.16
2018-03-08T06:31:14.697Z,5.12
2018-03-08T06:32:14.714Z,5.12
2018-03-08T06:33:14.732Z,5.16
2018-03-08T06:34:14.765Z,5.19
2018-03-08T06:35:14.781Z,5.05
2018-03-08T06:36:14.797Z,5.16
2018-03-08T06:37:14.823Z,5.19
2018-03-08T06:38:14.860Z,5.19
2018-03-08T06:39:14.857Z,5.23
2018-03-08T06:40:14.882Z,5.23
2018-03-08T06:41:14.922Z,5.23
2018-03-08T06:42:14.929Z,5.15
2018-03-08T06:43:14.938Z,5.23
2018-03-08T06:44:14.964Z,5.23
2018-03-08T06:45:14.986Z,5.26
2018-03-08T06:46:15.003Z,5.26
2018-03-08T06:47:15.022Z,5.29
2018-03-08T06:48:15.046Z,5.19
2018-03-08T06:49:15.087Z,5.36
2018-03-08T06:50:15.089Z,5.29
2018-03-08T06:51:15.118Z,5.22
2018-03-08T06:52:15.138Z,5.29
2018-03-08T06:53:15.156Z,5.37
2018-03-08T06:54:15.167Z,5.28
2018-03-08T06:55:15.234Z,5.28
2018-03-08T06:56:15.231Z,5.31
2018-03-08T06:57:15.242Z,5.29
2018-03-08T06:58:15.254Z,5.28
2018-03-08T06:59:15.288Z,5.40
2018-03-08T07:00:15.298Z,5.31
2018-03-08T07:01:15.325Z,5.33
2018-03-08T07:02:15.340Z,5.34
2018-03-08T07:03:15.364Z,5.29
2018-03-08T07:04:15.390Z,5.40
2018-03-08T07:05:15.404Z,5.29
2018-03-08T07:06:15.426Z,5.33
2018-03-08T07:07:15.443Z,5.33
2018-03-08T07:08:15.475Z,5.34
2018-03-08T07:09:15.484Z,5.29
2018-03-08T07:10:15.511Z,5.37
2018-03-08T07:11:15.535Z,5.38
2018-03-08T07:12:15.550Z,5.41
2018-03-08T07:13:15.586Z,5.51
2018-03-08T07:14:15.590Z,5.46
2018-03-08T07:15:15.622Z,5.40
2018-03-08T07:16:15.641Z,5.41
2018-03-08T07:17:15.660Z,5.41
2018-03-08T07:18:15.684Z,5.49
2018-03-08T07:19:15.706Z,5.36
2018-03-08T07:20:15.718Z,5.52
2018-03-08T07:21:15.743Z,5.55
2018-03-08T07:22:15.759Z,5.46
2018-03-08T07:23:15.779Z,5.52
2018-03-08T07:24:15.878Z,5.51
2018-03-08T07:25:15.825Z,5.46
2018-03-08T07:26:15.877Z,5.52
2018-03-08T07:27:15.872Z,5.56
2018-03-08T07:28:15.889Z,5.58
2018-03-08T07:29:15.910Z,5.55
2018-03-08T07:30:15.933Z,5.55
2018-03-08T07:31:15.956Z,5.56
2018-03-08T07:32:15.985Z,5.64
2018-03-08T07:33:15.998Z,5.59
2018-03-08T07:34:16.018Z,5.58
2018-03-08T07:35:16.044Z,5.62
2018-03-08T07:36:16.054Z,5.58
2018-03-08T07:37:16.090Z,5.62
2018-03-08T07:38:16.109Z,5.73
2018-03-08T07:39:16.122Z,5.74
2018-03-08T07:40:16.172Z,5.65
2018-03-08T07:41:16.173Z,5.62
2018-03-08T07:42:16.181Z,5.74
2018-03-08T07:43:16.207Z,5.73
2018-03-08T07:44:16.222Z,5.67
2018-03-08T07:45:16.245Z,5.62
2018-03-08T07:46:16.265Z,5.81
2018-03-08T07:47:16.315Z,5.87
2018-03-08T07:48:16.316Z,5.76
2018-03-08T07:49:16.329Z,5.77
2018-03-08T07:50:16.359Z,5.74
2018-03-08T07:51:16.378Z,5.80
2018-03-08T07:52:16.394Z,5.87
2018-03-08T07:53:16.414Z,5.87
2018-03-08T07:54:16.435Z,5.91
2018-03-08T07:55:16.480Z,5.87
2018-03-08T07:56:16.485Z,5.87
2018-03-08T07:57:16.496Z,5.81
2018-03-08T07:58:16.519Z,5.94
2018-03-08T07:59:16.554Z,5.81
2018-03-08T08:00:16.567Z,5.90
2018-03-08T08:01:16.589Z,5.81
2018-03-08T08:02:16.613Z,5.94
2018-03-08T08:03:16.653Z,5.84
2018-03-08T08:04:16.651Z,5.77
2018-03-08T08:05:16.665Z,5.99
2018-03-08T08:06:16.688Z,5.90
2018-03-08T08:07:16.712Z,5.87
2018-03-08T08:08:16.732Z,5.88
2018-03-08T08:09:16.749Z,5.83
2018-03-08T08:10:16.777Z,5.98
2018-03-08T08:11:16.798Z,6.01
2018-03-08T08:12:16.834Z,5.91
2018-03-08T08:13:16.853Z,5.92
2018-03-08T08:14:16.869Z,5.97
2018-03-08T08:15:16.880Z,5.98
2018-03-08T08:16:16.902Z,5.97
2018-03-08T08:17:16.928Z,5.97
2018-03-08T08:18:16.951Z,5.95
2018-03-08T08:19:16.979Z,5.97
2018-03-08T08:20:16.998Z,6.09
2018-03-08T08:21:17.015Z,5.97
2018-03-08T08:22:17.040Z,5.97
2018-03-08T08:23:17.053Z,5.95
2018-03-08T08:24:17.087Z,5.94
2018-03-08T08:25:17.094Z,5.97
2018-03-08T08:26:17.114Z,5.95
2018-03-08T08:27:17.136Z,5.97
2018-03-08T08:28:17.164Z,6.07
2018-03-08T08:29:17.182Z,6.09
2018-03-08T08:30:17.204Z,6.01
2018-03-08T08:31:17.231Z,6.10
2018-03-08T08:32:17.251Z,6.07
2018-03-08T08:33:17.275Z,6.07
2018-03-08T08:34:17.298Z,6.13
2018-03-08T08:35:17.338Z,6.05
2018-03-08T08:36:17.338Z,5.97
2018-03-08T08:37:17.349Z,5.97
2018-03-08T08:38:17.378Z,5.94
2018-03-08T08:39:17.399Z,5.90
2018-03-08T08:40:17.421Z,5.99
2018-03-08T08:41:17.434Z,5.98
2018-03-08T08:42:17.474Z,5.94
2018-03-08T08:43:17.479Z,6.07
2018-03-08T08:44:17.511Z,5.97
2018-03-08T08:45:17.532Z,6.13
2018-03-08T08:46:17.539Z,6.10
2018-03-08T08:47:17.572Z,6.05
2018-03-08T08:48:17.602Z,5.95
2018-03-08T08:49:17.617Z,6.06
2018-03-08T08:50:17.629Z,6.05
2018-03-08T08:51:17.648Z,6.16
2018-03-08T08:52:17.687Z,6.09
2018-03-08T08:53:17.692Z,6.10
2018-03-08T08:54:17.730Z,6.07
2018-03-08T08:55:17.739Z,6.15
2018-03-08T08:56:17.764Z,6.07
2018-03-08T08:57:17.780Z,5.98
2018-03-08T08:58:17.808Z,5.97
2018-03-08T08:59:17.820Z,5.97
2018-03-08T09:00:17.882Z,5.97
2018-03-08T09:01:17.869Z,5.94
2018-03-08T09:02:17.908Z,5.97
2018-03-08T09:03:17.914Z,5.97
2018-03-08T09:04:17.931Z,5.97
2018-03-08T09:05:17.958Z,5.92
2018-03-08T09:06:17.979Z,5.81
2018-03-08T09:07:18.004Z,5.98
2018-03-08T09:08:18.022Z,5.84
2018-03-08T09:09:18.045Z,5.90
2018-03-08T09:10:18.060Z,5.98
2018-03-08T09:11:18.079Z,5.80
2018-03-08T09:12:18.110Z,5.81
2018-03-08T09:13:18.175Z,5.81
2018-03-08T09:14:18.157Z,5.81
2018-03-08T09:15:18.178Z,5.90
2018-03-08T09:16:18.185Z,5.87
2018-03-08T09:17:18.204Z,5.81
2018-03-08T09:18:18.256Z,5.87
2018-03-08T09:19:18.249Z,5.83
2018-03-08T09:20:18.274Z,5.88
2018-03-08T09:21:18.303Z,5.88
2018-03-08T09:22:18.316Z,5.87
2018-03-08T09:23:18.334Z,5.83
2018-03-08T09:24:18.470Z,5.77
2018-03-08T09:25:18.383Z,5.92
2018-03-08T09:26:18.417Z,5.81
2018-03-08T09:27:18.419Z,5.81
2018-03-08T09:28:18.438Z,5.81
2018-03-08T09:29:18.465Z,5.81
2018-03-08T09:30:18.485Z,5.87
2018-03-08T09:31:18.508Z,5.83
2018-03-08T09:32:18.538Z,5.87
2018-03-08T09:33:18.562Z,5.80
2018-03-08T09:34:18.581Z,5.83
2018-03-08T09:35:18.588Z,5.73
2018-03-08T09:36:18.612Z,5.80
2018-03-08T09:37:18.637Z,5.76
2018-03-08T09:38:18.657Z,5.77
2018-03-08T09:39:18.747Z,5.77
2018-03-08T09:40:18.696Z,5.81
2018-03-08T09:41:18.723Z,5.73
2018-03-08T09:42:18.740Z,5.77
2018-03-08T09:43:18.781Z,5.73
2018-03-08T09:44:18.786Z,5.74
2018-03-08T09:45:18.814Z,5.65
2018-03-08T09:46:18.831Z,5.70
2018-03-08T09:47:18.851Z,5.67
2018-03-08T09:48:18.868Z,5.67
2018-03-08T09:49:18.889Z,5.67
2018-03-08T09:50:18.914Z,5.64
2018-03-08T09:51:18.938Z,5.65
2018-03-08T09:52:18.950Z,5.67
2018-03-08T09:53:18.974Z,5.64
2018-03-08T09:54:19.005Z,5.62
2018-03-08T09:55:19.014Z,5.62
2018-03-08T09:56:19.038Z,5.64
2018-03-08T09:57:19.063Z,5.61
2018-03-08T09:58:19.080Z,5.67
2018-03-08T09:59:19.103Z,5.72
2018-03-08T10:00:19.123Z,5.61
2018-03-08T10:01:19.146Z,5.65
2018-03-08T10:02:19.166Z,5.67
2018-03-08T10:03:19.190Z,5.64
2018-03-08T10:04:19.208Z,5.67
2018-03-08T10:05:19.225Z,5.61
2018-03-08T10:06:19.257Z,5.62
2018-03-08T10:07:19.269Z,5.55
2018-03-08T10:08:19.305Z,5.59
2018-03-08T10:09:19.419Z,5.62
2018-03-08T10:10:19.339Z,5.62
2018-03-08T10:11:19.359Z,5.62
2018-03-08T10:12:19.381Z,5.61
2018-03-08T10:13:19.410Z,5.51
2018-03-08T10:14:19.434Z,5.61
2018-03-08T10:15:19.442Z,5.59
2018-03-08T10:16:19.462Z,5.54
2018-03-08T10:17:19.481Z,5.64
2018-03-08T10:18:19.503Z,5.58
2018-03-08T10:19:19.526Z,5.61
2018-03-08T10:20:19.545Z,5.64
2018-03-08T10:21:44.182Z,5.58
2018-03-08T10:22:19.595Z,5.58
2018-03-08T10:23:19.619Z,5.62
2018-03-08T10:24:19.632Z,5.44
2018-03-08T10:25:19.655Z,5.56
2018-03-08T10:26:19.692Z,5.62
2018-03-08T10:27:19.701Z,5.64
2018-03-08T10:28:19.718Z,5.65
2018-03-08T10:29:19.740Z,5.62
2018-03-08T10:30:19.761Z,5.67
2018-03-08T10:31:19.779Z,5.62
2018-03-08T10:32:19.809Z,5.65
2018-03-08T10:33:19.875Z,5.65
2018-03-08T10:34:19.846Z,5.73
2018-03-08T10:35:19.870Z,5.64
2018-03-08T10:36:19.891Z,5.73
2018-03-08T10:37:19.904Z,5.77
2018-03-08T10:38:19.998Z,5.72
2018-03-08T10:40:20.581Z,5.73
2018-03-08T10:41:20.000Z,5.73
2018-03-08T10:42:20.012Z,5.70
2018-03-08T10:43:20.039Z,5.69
2018-03-08T10:44:20.055Z,5.64
2018-03-08T10:45:20.078Z,5.62
2018-03-08T10:46:20.097Z,5.62
2018-03-08T10:47:20.116Z,5.64
2018-03-08T10:48:20.138Z,5.65
2018-03-08T10:49:20.189Z,5.64
2018-03-08T10:50:20.193Z,5.64
2018-03-08T10:51:20.214Z,5.64
2018-03-08T10:52:20.345Z,5.70
2018-03-08T10:53:20.285Z,5.72
2018-03-08T10:54:20.269Z,5.65
2018-03-08T10:55:20.301Z,5.65
2018-03-08T10:56:20.311Z,5.74
2018-03-08T10:57:20.336Z,5.73
2018-03-08T10:58:20.362Z,5.70
2018-03-08T10:59:20.382Z,5.74
2018-03-08T11:00:20.392Z,5.74
2018-03-08T11:01:20.473Z,5.74
2018-03-08T11:02:20.516Z,5.76
2018-03-08T11:03:20.478Z,5.76
2018-03-08T11:04:20.483Z,5.79
2018-03-08T11:05:20.504Z,5.74
2018-03-08T11:06:20.574Z,5.73
2018-03-08T11:07:20.549Z,5.76
2018-03-08T11:08:20.566Z,5.81
2018-03-08T11:09:20.584Z,5.80
2018-03-08T11:10:20.623Z,5.80
2018-03-08T11:11:20.627Z,5.83
2018-03-08T11:12:20.661Z,5.97
2018-03-08T11:13:20.675Z,5.88
2018-03-08T11:14:20.696Z,5.94
2018-03-08T11:15:20.748Z,5.94
2018-03-08T11:16:20.735Z,5.97
2018-03-08T11:17:20.762Z,5.97
2018-03-08T11:18:20.781Z,6.07
2018-03-08T11:19:20.806Z,6.07
2018-03-08T11:20:20.842Z,6.01
2018-03-08T11:21:20.852Z,6.06
2018-03-08T11:22:20.871Z,6.15
2018-03-08T11:23:20.897Z,6.02
2018-03-08T11:24:20.916Z,6.16
2018-03-08T11:25:20.926Z,6.17
2018-03-08T11:26:20.953Z,6.31
2018-03-08T11:27:20.975Z,6.32
2018-03-08T11:28:21.001Z,6.20
2018-03-08T11:29:21.040Z,6.20
2018-03-08T11:30:21.041Z,6.35
2018-03-08T11:31:21.119Z,6.36
2018-03-08T11:32:21.083Z,6.32
2018-03-08T11:33:21.107Z,6.34
2018-03-08T11:34:21.124Z,6.35
2018-03-08T11:35:21.178Z,6.43
2018-03-08T11:36:21.206Z,6.43
2018-03-08T11:37:21.193Z,6.41
2018-03-08T11:38:21.228Z,6.44
2018-03-08T11:39:21.259Z,6.53
2018-03-08T11:40:21.257Z,6.60
2018-03-08T11:41:23.088Z,6.70
2018-03-08T11:42:21.309Z,6.92
2018-03-08T11:43:21.379Z,7.08
2018-03-08T11:44:21.353Z,7.23
2018-03-08T11:45:21.378Z,7.25
2018-03-08T11:46:21.395Z,7.21
2018-03-08T11:47:21.416Z,7.22
2018-03-08T11:48:21.428Z,7.50
2018-03-08T11:49:21.456Z,7.59
2018-03-08T11:50:21.853Z,7.69
2018-03-08T11:51:21.500Z,7.75
2018-03-08T11:52:21.522Z,7.64
2018-03-08T11:53:21.544Z,7.70
2018-03-08T11:54:21.569Z,7.69
2018-03-08T11:55:21.602Z,7.50
2018-03-08T11:56:21.614Z,7.33
2018-03-08T11:57:21.644Z,7.40
2018-03-08T11:58:21.694Z,7.40
2018-03-08T11:59:21.681Z,7.36
2018-03-08T12:00:21.704Z,7.36
2018-03-08T12:01:21.751Z,7.29
2018-03-08T12:02:21.762Z,7.36
2018-03-08T12:03:21.774Z,7.36
2018-03-08T12:04:21.918Z,7.28
2018-03-08T12:05:21.823Z,7.22
2018-03-08T12:06:21.844Z,7.23
2018-03-08T12:07:21.941Z,7.15
2018-03-08T12:08:21.907Z,7.23
2018-03-08T12:09:21.911Z,7.28
2018-03-08T12:10:21.967Z,7.32
2018-03-08T12:11:21.970Z,7.22
2018-03-08T12:12:21.995Z,7.28
2018-03-08T12:13:22.046Z,7.39
2018-03-08T12:14:22.031Z,7.36
2018-03-08T12:15:22.051Z,7.51
2018-03-08T12:16:22.082Z,7.67
2018-03-08T12:17:22.095Z,7.81
2018-03-08T12:18:22.125Z,7.83
2018-03-08T12:19:22.164Z,8.49
2018-03-08T12:20:22.164Z,9.02
2018-03-08T12:21:22.201Z,10.00
2018-03-08T12:22:22.211Z,9.77
2018-03-08T12:23:22.260Z,9.56
2018-03-08T12:24:22.270Z,9.19
2018-03-08T12:25:22.288Z,9.00
2018-03-08T12:26:22.309Z,8.81
2018-03-08T12:27:22.343Z,8.64
2018-03-08T12:28:22.354Z,8.64
2018-03-08T12:29:22.394Z,8.61
2018-03-08T12:30:22.407Z,8.60
2018-03-08T12:31:22.443Z,8.52
2018-03-08T12:32:22.450Z,8.71
2018-03-08T12:33:22.522Z,8.68
2018-03-08T12:34:22.496Z,8.61
2018-03-08T12:35:22.530Z,8.69
2018-03-08T12:36:22.558Z,8.69
2018-03-08T12:37:22.568Z,8.79
2018-03-08T12:38:22.617Z,8.86
2018-03-08T12:39:22.625Z,8.87
2018-03-08T12:40:22.652Z,8.89
2018-03-08T12:41:22.679Z,8.95
2018-03-08T12:42:22.703Z,8.89
2018-03-08T12:43:22.756Z,8.86
2018-03-08T12:44:22.744Z,8.86
2018-03-08T12:45:22.764Z,8.77
2018-03-08T12:46:22.791Z,8.79
2018-03-08T12:47:22.834Z,8.87
2018-03-08T12:48:22.842Z,8.78
2018-03-08T12:49:22.855Z,8.92
2018-03-08T12:50:22.891Z,8.97
2018-03-08T12:51:22.918Z,8.90
2018-03-08T12:52:22.935Z,8.92
2018-03-08T12:53:22.964Z,8.93
2018-03-08T12:54:22.986Z,8.89
2018-03-08T12:55:23.006Z,8.96
2018-03-08T12:56:23.041Z,9.05
2018-03-08T12:57:23.066Z,9.05
2018-03-08T12:58:23.129Z,9.02
2018-03-08T12:59:23.108Z,9.08
2018-03-08T13:00:23.153Z,9.02
2018-03-08T13:01:23.151Z,9.00
2018-03-08T13:02:23.176Z,9.12
2018-03-08T13:03:23.200Z,8.99
2018-03-08T13:04:23.232Z,9.05
2018-03-08T13:05:23.255Z,8.99
2018-03-08T13:06:23.284Z,8.99
2018-03-08T13:07:23.296Z,9.11
2018-03-08T13:08:23.322Z,9.18
2018-03-08T13:09:23.358Z,9.11
2018-03-08T13:10:23.369Z,9.03
2018-03-08T13:11:23.386Z,9.11
2018-03-08T13:12:23.425Z,9.02
2018-03-08T13:13:23.445Z,8.86
2018-03-08T13:14:23.474Z,9.05
2018-03-08T13:15:23.506Z,9.08
2018-03-08T13:16:23.554Z,9.11
2018-03-08T13:17:23.538Z,9.13
2018-03-08T13:18:23.566Z,9.05
2018-03-08T13:19:23.578Z,9.12
2018-03-08T13:20:23.620Z,9.08
2018-03-08T13:21:23.629Z,9.08